createdAt,value
2023-05-22T00:01:45.435Z,101307.59
2023-05-22T00:04:21.591Z,101315.00
2023-05-22T00:06:49.686Z,101314.16
2023-05-22T00:09:17.566Z,101306.13
2023-05-22T00:11:45.561Z,101308.81
2023-05-22T00:14:13.688Z,101299.75
2023-05-22T00:16:41.718Z,101307.59
2023-05-22T00:19:13.701Z,101295.38
2023-05-22T00:21:42.994Z,101295.38
2023-05-22T00:24:11.064Z,101287.66
2023-05-22T00:26:38.910Z,101291.03
2023-05-22T00:29:06.736Z,101298.41
2023-05-22T00:31:34.570Z,101302.94
2023-05-22T00:34:02.427Z,101297.56
2023-05-22T00:36:30.381Z,101299.41
2023-05-22T00:38:59.468Z,101286.84
2023-05-22T00:41:27.461Z,101296.72
2023-05-22T00:43:55.165Z,101294.03
2023-05-22T00:46:24.563Z,101293.38
2023-05-22T00:48:52.905Z,101287.69
2023-05-22T00:51:21.530Z,101284.53
2023-05-22T00:53:49.806Z,101284.84
2023-05-22T00:56:19.959Z,101271.16
2023-05-22T00:58:47.724Z,101282.72
2023-05-22T01:01:16.162Z,101281.69
2023-05-22T01:03:45.078Z,101287.91
2023-05-22T01:06:14.665Z,101280.22
2023-05-22T01:08:43.488Z,101276.50
2023-05-22T01:11:14.673Z,101288.41
2023-05-22T01:13:47.967Z,101283.22
2023-05-22T01:16:25.613Z,101289.59
2023-05-22T01:19:01.166Z,101282.38
2023-05-22T01:21:35.609Z,101285.06
2023-05-22T01:24:37.883Z,101274.69
2023-05-22T01:27:35.220Z,101287.91
2023-05-22T01:30:18.535Z,101287.91
2023-05-22T01:32:48.690Z,101275.34
2023-05-22T01:35:18.744Z,101261.09
2023-05-22T01:37:46.844Z,101268.13
2023-05-22T01:40:14.909Z,101257.59
2023-05-22T01:42:42.848Z,101261.75
2023-05-22T01:45:12.269Z,101254.56
2023-05-22T01:47:40.116Z,101248.53
2023-05-22T01:50:10.246Z,101240.16
2023-05-22T01:52:42.171Z,101235.19
2023-05-22T01:55:14.472Z,101228.47
2023-05-22T01:57:47.804Z,101223.47
2023-05-22T02:00:16.584Z,101231.16
2023-05-22T02:02:47.555Z,101239.19
2023-05-22T02:05:18.861Z,101233.50
2023-05-22T02:07:47.278Z,101229.81
2023-05-22T02:10:15.778Z,101230.66
2023-05-22T02:12:43.500Z,101229.50
2023-05-22T02:15:11.672Z,101229.31
2023-05-22T02:17:41.475Z,101241.88
2023-05-22T02:20:14.474Z,101235.19
2023-05-22T02:22:45.098Z,101240.06
2023-05-22T02:25:14.496Z,101244.25
2023-05-22T02:27:43.102Z,101243.41
2023-05-22T02:30:11.832Z,101247.25
2023-05-22T02:32:40.160Z,101237.38
2023-05-22T02:35:08.895Z,101232.00
2023-05-22T02:37:36.822Z,101238.19
2023-05-22T02:40:07.275Z,101234.53
2023-05-22T02:42:35.523Z,101236.22
2023-05-22T02:45:03.667Z,101233.69
2023-05-22T02:47:31.419Z,101228.50
2023-05-22T02:49:59.240Z,101228.50
2023-05-22T02:52:28.376Z,101237.03
2023-05-22T02:54:56.187Z,101221.16
2023-05-22T02:57:25.332Z,101225.63
2023-05-22T02:59:54.166Z,101218.47
2023-05-22T03:02:21.938Z,101219.44
2023-05-22T03:04:49.627Z,101214.78
2023-05-22T03:07:17.371Z,101208.59
2023-05-22T03:09:45.102Z,101211.41
2023-05-22T03:12:12.851Z,101214.78
2023-05-22T03:14:42.040Z,101205.72
2023-05-22T03:17:09.734Z,101204.38
2023-05-22T03:19:37.615Z,101198.31
2023-05-22T03:22:06.615Z,101194.81
2023-05-22T03:24:34.403Z,101190.47
2023-05-22T03:27:02.118Z,101187.59
2023-05-22T03:29:29.862Z,101184.28
2023-05-22T03:31:59.969Z,101174.56
2023-05-22T03:34:30.005Z,101170.03
2023-05-22T03:36:58.063Z,101173.56
2023-05-22T03:39:25.860Z,101158.50
2023-05-22T03:41:53.586Z,101162.16
2023-05-22T03:44:21.586Z,101146.25
2023-05-22T03:46:49.263Z,101155.47
2023-05-22T03:49:18.408Z,101156.81
2023-05-22T03:51:46.196Z,101149.13
2023-05-22T03:54:13.945Z,101153.00
2023-05-22T03:56:41.682Z,101154.00
2023-05-22T03:59:09.611Z,101160.34
2023-05-22T04:01:39.349Z,101149.81
2023-05-22T04:04:07.152Z,101157.19
2023-05-22T04:06:43.000Z,101158.84
2023-05-22T04:09:11.922Z,101169.09
2023-05-22T04:11:42.143Z,101164.06
2023-05-22T04:14:10.346Z,101162.06
2023-05-22T04:16:38.187Z,101162.75
2023-05-22T04:19:05.951Z,101162.88
2023-05-22T04:21:34.443Z,101149.84
2023-05-22T04:24:07.458Z,101154.19
2023-05-22T04:26:36.174Z,101157.03
2023-05-22T04:29:04.017Z,101158.88
2023-05-22T04:31:32.558Z,101163.41
2023-05-22T04:34:00.445Z,101155.56
2023-05-22T04:36:29.085Z,101162.56
2023-05-22T04:38:56.901Z,101161.75
2023-05-22T04:41:26.673Z,101162.41
2023-05-22T04:43:54.775Z,101156.03
2023-05-22T04:46:22.704Z,101163.91
2023-05-22T04:48:51.054Z,101165.56
2023-05-22T04:51:18.929Z,101166.56
2023-05-22T04:53:49.336Z,101167.59
2023-05-22T04:56:27.978Z,101175.78
2023-05-22T04:59:05.436Z,101174.97
2023-05-22T05:01:35.100Z,101182.34
2023-05-22T05:04:03.698Z,101176.16
2023-05-22T05:06:31.660Z,101176.97
2023-05-22T05:08:59.688Z,101181.31
2023-05-22T05:11:27.423Z,101170.44
2023-05-22T05:13:55.094Z,101171.63
2023-05-22T05:16:25.213Z,101172.94
2023-05-22T05:18:53.469Z,101173.44
2023-05-22T05:21:21.446Z,101175.78
2023-05-22T05:23:49.191Z,101182.50
2023-05-22T05:26:16.947Z,101182.81
2023-05-22T05:28:44.680Z,101187.16
2023-05-22T05:31:12.599Z,101184.31
2023-05-22T05:33:41.812Z,101197.38
2023-05-22T05:36:10.059Z,101197.38
2023-05-22T05:38:37.992Z,101195.72
2023-05-22T05:41:06.025Z,101199.41
2023-05-22T05:43:33.849Z,101203.06
2023-05-22T05:46:01.830Z,101205.72
2023-05-22T05:48:29.606Z,101198.88
2023-05-22T05:50:58.743Z,101201.38
2023-05-22T05:53:26.500Z,101211.28
2023-05-22T05:55:54.293Z,101203.75
2023-05-22T05:58:22.027Z,101208.94
2023-05-22T06:00:49.835Z,101210.44
2023-05-22T06:03:18.197Z,101220.31
2023-05-22T06:05:47.010Z,101216.13
2023-05-22T06:08:16.098Z,101214.13
2023-05-22T06:10:43.800Z,101217.13
2023-05-22T06:13:11.658Z,101207.75
2023-05-22T06:15:39.452Z,101217.78
2023-05-22T06:18:07.475Z,101219.13
2023-05-22T06:20:35.301Z,101210.94
2023-05-22T06:23:03.066Z,101221.47
2023-05-22T06:25:32.227Z,101223.13
2023-05-22T06:28:00.836Z,101215.44
2023-05-22T06:30:39.459Z,101221.44
2023-05-22T06:33:11.574Z,101221.09
2023-05-22T06:35:39.522Z,101223.63
2023-05-22T06:38:07.255Z,101225.13
2023-05-22T06:40:36.443Z,101229.50
2023-05-22T06:43:04.194Z,101231.69
2023-05-22T06:45:31.959Z,101223.66
2023-05-22T06:47:59.862Z,101231.50
2023-05-22T06:50:27.660Z,101230.50
2023-05-22T06:52:55.454Z,101237.19
2023-05-22T06:55:23.633Z,101242.22
2023-05-22T06:57:52.864Z,101241.19
2023-05-22T07:00:21.886Z,101238.19
2023-05-22T07:02:49.925Z,101243.84
2023-05-22T07:05:18.206Z,101240.84
2023-05-22T07:07:46.378Z,101245.84
2023-05-22T07:10:14.670Z,101248.88
2023-05-22T07:12:42.452Z,101258.88
2023-05-22T07:15:14.457Z,101252.34
2023-05-22T07:17:43.291Z,101251.16
2023-05-22T07:20:12.029Z,101252.16
2023-05-22T07:24:44.728Z,101252.47
2023-05-22T07:27:12.465Z,101251.94
2023-05-22T07:29:40.223Z,101254.09
2023-05-22T07:32:08.903Z,101257.44
2023-05-22T07:34:37.326Z,101257.09
2023-05-22T07:37:08.352Z,101252.22
2023-05-22T07:39:36.361Z,101260.09
2023-05-22T07:42:06.164Z,101252.53
2023-05-22T07:44:34.318Z,101256.38
2023-05-22T07:47:02.116Z,101257.72
2023-05-22T07:49:29.836Z,101257.38
2023-05-22T07:51:57.542Z,101259.06
2023-05-22T07:54:25.255Z,101260.75
2023-05-22T07:56:53.337Z,101261.59
2023-05-22T07:59:23.792Z,101265.75
2023-05-22T08:03:41.690Z,101271.13
2023-05-22T08:06:10.052Z,101271.13
2023-05-22T08:08:37.851Z,101267.59
2023-05-22T08:11:06.129Z,101266.22
2023-05-22T08:13:34.280Z,101269.22
2023-05-22T08:16:02.202Z,101267.69
2023-05-22T08:18:30.317Z,101261.97
2023-05-22T08:21:00.550Z,101262.09
2023-05-22T08:23:28.392Z,101245.16
2023-05-22T08:25:56.160Z,101255.84
2023-05-22T08:28:23.927Z,101257.69
2023-05-22T08:30:51.885Z,101258.53
2023-05-22T08:33:20.137Z,101256.50
2023-05-22T08:35:47.998Z,101260.19
2023-05-22T08:38:17.597Z,101247.41
2023-05-22T08:40:49.412Z,101250.06
2023-05-22T08:43:17.127Z,101246.59
2023-05-22T08:45:44.934Z,101247.53
2023-05-22T08:48:14.545Z,101245.16
2023-05-22T08:50:43.228Z,101248.47
2023-05-22T08:53:14.845Z,101248.19
2023-05-22T08:55:43.966Z,101249.84
2023-05-22T08:58:12.609Z,101246.31
2023-05-22T09:00:41.033Z,101252.84
2023-05-22T09:03:10.257Z,101244.78
2023-05-22T09:05:39.318Z,101249.19
2023-05-22T09:08:19.157Z,101245.94
2023-05-22T09:12:15.482Z,101243.38
2023-05-22T09:14:43.819Z,101242.16
2023-05-22T09:17:12.799Z,101247.66
2023-05-22T09:19:44.825Z,101244.78
2023-05-22T09:22:12.608Z,101241.53
2023-05-22T09:24:42.089Z,101236.63
2023-05-22T09:27:10.701Z,101233.41
2023-05-22T09:29:50.325Z,101236.53
2023-05-22T09:32:18.607Z,101237.22
2023-05-22T09:34:47.373Z,101229.78
2023-05-22T09:37:15.207Z,101233.97
2023-05-22T09:39:45.075Z,101232.19
2023-05-22T09:42:15.009Z,101223.41
2023-05-22T09:44:44.182Z,101226.00
2023-05-22T09:47:13.342Z,101223.59
2023-05-22T09:49:43.114Z,101224.53
2023-05-22T09:52:12.562Z,101218.78
2023-05-22T09:54:44.755Z,101226.09
2023-05-22T09:57:15.124Z,101219.31
2023-05-22T09:59:43.820Z,101217.53
2023-05-22T10:02:13.370Z,101219.03
2023-05-22T10:04:42.549Z,101226.53
2023-05-22T10:07:12.041Z,101222.47
2023-05-22T10:09:40.755Z,101227.84
2023-05-22T10:12:10.362Z,101222.06
2023-05-22T10:14:38.093Z,101215.94
2023-05-22T10:17:06.956Z,101224.47
2023-05-22T10:19:40.348Z,101222.22
2023-05-22T10:22:09.903Z,101221.47
2023-05-22T10:24:38.354Z,101225.44
2023-05-22T10:27:06.426Z,101224.03
2023-05-22T10:29:37.571Z,101220.72
2023-05-22T10:32:08.992Z,101224.88
2023-05-22T10:34:43.603Z,101208.25
2023-05-22T10:37:22.472Z,101211.22
2023-05-22T10:40:00.745Z,101207.88
2023-05-22T10:42:30.945Z,101212.25
2023-05-22T10:44:59.689Z,101201.91
2023-05-22T10:47:27.484Z,101200.72
2023-05-22T10:50:06.197Z,101198.44
2023-05-22T10:52:33.929Z,101193.06
2023-05-22T10:55:02.336Z,101200.97
2023-05-22T10:57:34.440Z,101199.97
2023-05-22T13:30:57.812Z,101151.31
2023-05-22T13:33:36.816Z,101144.13
2023-05-22T13:36:05.557Z,101151.00
2023-05-22T13:38:33.624Z,101146.22
2023-05-22T13:41:01.329Z,101143.53
2023-05-22T13:43:29.026Z,101144.16
2023-05-22T13:45:56.745Z,101148.97
2023-05-22T13:48:24.463Z,101147.72
2023-05-22T13:50:53.584Z,101155.63
2023-05-22T13:53:21.286Z,101153.53
2023-05-22T13:55:49.017Z,101148.13
2023-05-22T13:58:16.768Z,101150.63
2023-05-22T14:00:44.477Z,101145.00
2023-05-22T14:03:17.412Z,101148.97
2023-05-22T14:05:45.452Z,101148.34
2023-05-22T14:08:14.558Z,101150.63
2023-05-22T14:10:42.328Z,101137.38
2023-05-22T14:13:10.034Z,101139.03
2023-05-22T14:15:37.816Z,101139.03
2023-05-22T14:18:05.737Z,101127.59
2023-05-22T14:20:33.416Z,101130.53
2023-05-22T14:23:01.121Z,101128.63
2023-05-22T14:25:30.287Z,101133.19
2023-05-22T14:27:58.113Z,101134.44
2023-05-22T14:30:25.782Z,101137.34
2023-05-22T14:35:31.389Z,101130.44
2023-05-22T14:37:59.306Z,101134.41
2023-05-22T14:40:27.033Z,101134.81
2023-05-22T14:42:54.760Z,101140.88
2023-05-22T14:46:02.471Z,101137.88
2023-05-22T14:48:30.192Z,101140.72
2023-05-22T14:50:58.240Z,101148.41
2023-05-22T14:53:26.005Z,101149.19
2023-05-22T14:55:53.731Z,101162.88
2023-05-22T15:00:54.115Z,101154.22
2023-05-22T15:03:23.519Z,101166.09
2023-05-22T15:05:51.221Z,101162.88
2023-05-22T15:08:20.398Z,101168.56
2023-05-22T16:03:34.359Z,101221.03
2023-05-22T16:06:02.271Z,101217.50
2023-05-22T16:08:29.970Z,101222.91
2023-05-22T16:11:00.706Z,101217.94
2023-05-22T16:13:28.614Z,101222.00
2023-05-22T16:15:56.558Z,101224.69
2023-05-22T16:18:24.356Z,101229.22
2023-05-22T16:20:53.445Z,101232.78
2023-05-22T16:23:21.156Z,101224.91
2023-05-22T16:25:50.828Z,101234.66
2023-05-22T16:28:18.964Z,101238.22
2023-05-22T16:30:46.703Z,101236.38
2023-05-22T16:33:14.476Z,101234.16
2023-05-22T16:35:46.868Z,101230.00
2023-05-22T16:38:16.176Z,101239.31
2023-05-22T16:40:43.930Z,101239.44
2023-05-22T16:43:13.723Z,101240.28
2023-05-22T16:45:46.467Z,101238.22
2023-05-22T16:48:14.366Z,101235.44
2023-05-22T16:50:42.462Z,101238.19
2023-05-22T16:53:10.220Z,101251.88
2023-05-22T16:55:39.594Z,101241.47
2023-05-22T16:58:08.991Z,101250.66
2023-05-22T17:00:37.557Z,101270.47
2023-05-22T17:03:06.743Z,101261.41
2023-05-22T17:05:34.825Z,101255.66
2023-05-22T17:08:03.075Z,101269.41
2023-05-22T17:10:30.851Z,101271.06
2023-05-22T17:12:59.924Z,101263.66
2023-05-22T17:15:27.682Z,101268.88
2023-05-22T17:17:55.501Z,101260.97
2023-05-22T17:20:23.369Z,101259.94
2023-05-22T17:22:51.137Z,101263.31
2023-05-22T17:25:19.003Z,101265.63
2023-05-22T17:27:46.690Z,101271.34
2023-05-22T17:30:15.959Z,101268.84
2023-05-22T17:32:44.854Z,101274.66
2023-05-22T17:35:12.633Z,101264.94
2023-05-22T17:37:40.581Z,101281.72
2023-05-22T17:40:09.943Z,101276.34
2023-05-22T17:42:37.649Z,101268.28
2023-05-22T17:45:06.021Z,101275.63
2023-05-22T17:47:35.183Z,101277.28
2023-05-22T17:50:03.023Z,101283.69
2023-05-22T17:52:31.021Z,101281.38
2023-05-22T17:54:58.741Z,101281.53
2023-05-22T17:57:26.631Z,101274.66
2023-05-22T17:59:54.323Z,101282.84
2023-05-22T18:02:22.136Z,101281.81
2023-05-22T18:04:51.272Z,101282.28
2023-05-22T18:07:20.000Z,101294.72
2023-05-22T18:09:48.181Z,101289.34
2023-05-22T18:12:31.071Z,101287.84
2023-05-22T18:14:59.809Z,101293.03
2023-05-22T18:17:27.612Z,101295.06
2023-05-22T18:19:56.692Z,101308.69
2023-05-22T18:22:25.518Z,101310.25
2023-05-22T18:24:53.226Z,101316.00
2023-05-22T18:27:21.092Z,101319.06
2023-05-22T18:29:50.459Z,101328.44
2023-05-22T18:32:18.194Z,101330.16
2023-05-22T18:34:46.521Z,101339.09
2023-05-22T18:37:16.393Z,101331.94
2023-05-22T18:39:44.103Z,101339.34
2023-05-22T18:42:11.838Z,101336.34
2023-05-22T18:44:39.573Z,101336.22
2023-05-22T18:47:07.763Z,101328.69
2023-05-22T18:49:35.516Z,101338.09
2023-05-22T18:52:03.287Z,101353.88
2023-05-22T18:54:32.388Z,101351.09
2023-05-22T18:57:00.155Z,101351.59
2023-05-22T18:59:27.932Z,101355.63
2023-05-22T19:01:55.688Z,101360.72
2023-05-22T19:04:23.679Z,101355.50
2023-05-22T19:06:53.760Z,101360.72
2023-05-22T19:09:22.094Z,101367.44
2023-05-22T19:11:51.257Z,101367.97
2023-05-22T19:14:19.103Z,101379.84
2023-05-22T19:16:46.897Z,101376.88
2023-05-22T19:19:14.840Z,101378.88
2023-05-22T19:21:42.690Z,101386.44
2023-05-22T19:24:10.542Z,101381.56
2023-05-22T19:26:38.256Z,101379.06
2023-05-22T19:29:07.426Z,101379.22
2023-05-22T19:31:36.083Z,101382.59
2023-05-22T19:34:03.761Z,101379.75
2023-05-22T19:36:31.882Z,101385.94
2023-05-22T19:38:59.781Z,101393.66
2023-05-22T19:41:27.624Z,101390.66
2023-05-22T19:43:55.384Z,101394.34
2023-05-22T19:46:24.519Z,101398.03
2023-05-22T19:48:52.461Z,101405.38
2023-05-22T19:51:20.214Z,101397.69
2023-05-22T19:53:47.948Z,101398.84
2023-05-22T19:56:16.002Z,101406.72
2023-05-22T19:58:43.679Z,101408.22
2023-05-22T20:01:11.594Z,101401.84
2023-05-22T20:03:41.090Z,101415.41
2023-05-22T20:06:08.948Z,101421.41
2023-05-22T20:08:37.453Z,101421.75
2023-05-22T20:11:05.162Z,101422.75
2023-05-22T20:13:32.947Z,101424.22
2023-05-22T20:16:03.517Z,101427.91
2023-05-22T20:18:31.726Z,101433.94
2023-05-22T20:21:00.848Z,101429.56
2023-05-22T20:23:29.812Z,101434.75
2023-05-22T20:25:57.575Z,101425.69
2023-05-22T20:28:26.398Z,101428.03
2023-05-22T20:30:54.108Z,101438.41
2023-05-22T20:33:21.887Z,101438.72
2023-05-22T20:35:52.839Z,101441.72
2023-05-22T20:38:22.424Z,101452.56
2023-05-22T20:40:51.862Z,101446.47
2023-05-22T20:43:20.021Z,101447.97
2023-05-22T20:45:48.038Z,101449.28
2023-05-22T20:48:16.587Z,101447.91
2023-05-22T20:50:47.135Z,101445.69
2023-05-22T20:53:14.983Z,101459.25
2023-05-22T20:55:44.156Z,101460.88
2023-05-22T20:58:11.892Z,101467.84
2023-05-22T21:00:41.489Z,101464.78
2023-05-22T21:03:09.430Z,101469.81
2023-05-22T21:05:37.754Z,101469.41
2023-05-22T21:08:05.584Z,101469.75
2023-05-22T21:10:33.271Z,101470.88
2023-05-22T21:13:02.395Z,101473.31
2023-05-22T21:15:30.121Z,101471.31
2023-05-22T21:17:57.846Z,101476.25
2023-05-22T21:20:25.806Z,101481.53
2023-05-22T21:22:53.507Z,101485.50
2023-05-22T21:25:21.487Z,101481.25
2023-05-22T21:27:49.407Z,101482.09
2023-05-22T21:30:18.573Z,101482.75
2023-05-22T21:32:46.310Z,101483.09
2023-05-22T21:35:14.110Z,101486.50
2023-05-22T21:37:41.865Z,101489.31
2023-05-22T21:40:10.213Z,101486.66
2023-05-22T21:42:46.521Z,101493.13
2023-05-22T21:45:15.010Z,101488.94
2023-05-22T21:47:44.393Z,101484.56
2023-05-22T21:50:12.728Z,101491.03
2023-05-22T21:52:40.586Z,101493.03
2023-05-22T21:55:08.822Z,101496.19
2023-05-22T21:57:37.901Z,101503.41
2023-05-22T22:00:06.171Z,101502.63
2023-05-22T22:02:34.025Z,101501.97
2023-05-22T22:05:03.331Z,101501.03
2023-05-22T22:07:31.126Z,101497.28
2023-05-22T22:09:59.299Z,101495.66
2023-05-22T22:12:27.069Z,101497.78
2023-05-22T22:14:54.786Z,101505.22
2023-05-22T22:17:23.419Z,101499.63
2023-05-22T22:19:53.569Z,101508.94
2023-05-22T22:22:22.836Z,101497.13
2023-05-22T22:24:50.753Z,101501.75
2023-05-22T22:27:19.663Z,101495.72
2023-05-22T22:29:47.389Z,101499.94
2023-05-22T22:32:15.207Z,101490.38
2023-05-22T22:34:43.155Z,101485.88
2023-05-22T22:37:11.166Z,101490.38
2023-05-22T22:39:40.347Z,101484.22
2023-05-22T22:42:08.706Z,101489.69
2023-05-22T22:44:36.398Z,101489.00
2023-05-22T22:47:04.628Z,101492.09
2023-05-22T22:49:32.817Z,101489.59
2023-05-22T22:52:00.847Z,101491.69
2023-05-22T22:54:28.707Z,101487.91
2023-05-22T22:56:58.006Z,101484.25
2023-05-22T22:59:25.688Z,101483.41
2023-05-22T23:01:53.663Z,101479.19
2023-05-22T23:04:21.531Z,101488.19
2023-05-22T23:06:49.388Z,101482.31
2023-05-22T23:09:17.478Z,101484.00
2023-05-22T23:11:45.272Z,101494.66
2023-05-22T23:14:14.329Z,101489.47
2023-05-22T23:16:42.053Z,101494.38
2023-05-22T23:19:10.968Z,101492.56
2023-05-22T23:21:38.852Z,101502.25
2023-05-22T23:24:07.301Z,101493.69
2023-05-22T23:26:35.301Z,101494.69
2023-05-22T23:29:03.363Z,101487.94
2023-05-22T23:31:32.536Z,101485.97
2023-05-22T23:34:00.463Z,101483.31
2023-05-22T23:36:28.311Z,101484.03
2023-05-22T23:38:56.022Z,101479.78
2023-05-22T23:41:24.437Z,101469.97
2023-05-22T23:43:52.149Z,101479.94
2023-05-22T23:46:21.283Z,101484.28
2023-05-22T23:48:50.516Z,101484.59
2023-05-22T23:51:18.741Z,101496.94
2023-05-22T23:53:46.436Z,101498.91
2023-05-22T23:56:14.221Z,101492.59
2023-05-22T23:58:42.028Z,101502.28
